createdAt,value
2018-09-20T00:01:32.332Z,19.15
2018-09-20T00:04:07.203Z,19.15
2018-09-20T00:06:36.188Z,19.10
2018-09-20T00:09:06.549Z,19.15
2018-09-20T00:11:35.606Z,19.07
2018-09-20T00:16:59.275Z,18.95
2018-09-20T00:19:28.274Z,18.87
2018-09-20T00:21:57.352Z,18.98
2018-09-20T00:24:26.808Z,18.93
2018-09-20T00:26:56.097Z,18.94
2018-09-20T00:29:25.100Z,18.86
2018-09-20T00:31:54.242Z,18.82
2018-09-20T00:34:28.745Z,18.73
2018-09-20T00:36:58.397Z,18.78
2018-09-20T00:39:27.519Z,18.77
2018-09-20T00:41:56.535Z,18.79
2018-09-20T00:44:25.679Z,18.84
2018-09-20T00:46:54.751Z,18.87
2018-09-20T00:49:24.224Z,18.85
2018-09-20T00:51:53.535Z,18.90
2018-09-20T00:54:23.029Z,19.01
2018-09-20T00:56:52.045Z,18.90
2018-09-20T00:59:21.703Z,18.85
2018-09-20T01:02:41.675Z,18.88
2018-09-20T01:05:10.764Z,18.92
2018-09-20T01:07:39.772Z,18.97
2018-09-20T01:10:08.940Z,18.91
2018-09-20T01:12:38.063Z,18.88
2018-09-20T01:15:08.020Z,18.94
2018-09-20T01:17:37.404Z,18.91
2018-09-20T01:20:07.364Z,18.90
2018-09-20T01:22:36.901Z,18.91
2018-09-20T01:25:06.394Z,18.89
2018-09-20T01:27:35.881Z,18.82
2018-09-20T01:30:05.603Z,18.80
2018-09-20T01:32:35.557Z,18.80
2018-09-20T01:35:05.306Z,18.79
2018-09-20T01:37:52.267Z,18.78
2018-09-20T01:40:24.726Z,18.79
2018-09-20T01:42:53.799Z,18.80
2018-09-20T01:45:23.424Z,18.74
2018-09-20T01:47:52.424Z,18.59
2018-09-20T01:50:23.000Z,18.56
2018-09-20T01:53:56.171Z,18.51
2018-09-20T01:56:26.526Z,18.59
2018-09-20T01:58:55.533Z,18.57
2018-09-20T02:01:38.141Z,18.52
2018-09-20T02:04:07.404Z,18.43
2018-09-20T02:07:19.989Z,18.45
2018-09-20T02:09:49.212Z,18.42
2018-09-20T02:12:18.260Z,18.39
2018-09-20T02:14:48.250Z,18.49
2018-09-20T02:17:17.499Z,18.78
2018-09-20T02:19:46.824Z,18.65
2018-09-20T02:22:16.788Z,18.62
2018-09-20T02:24:45.901Z,18.58
2018-09-20T02:27:14.983Z,18.53
2018-09-20T02:29:44.197Z,18.52
2018-09-20T02:32:13.217Z,18.53
2018-09-20T02:34:42.326Z,18.52
2018-09-20T02:37:11.685Z,18.51
2018-09-20T02:39:42.073Z,18.54
2018-09-20T02:42:11.169Z,18.56
2018-09-20T02:44:41.161Z,18.52
2018-09-20T02:47:10.395Z,18.58
2018-09-20T02:49:39.574Z,18.74
2018-09-20T02:52:08.814Z,18.73
2018-09-20T02:54:37.794Z,18.64
2018-09-20T02:57:07.067Z,18.61
2018-09-20T02:59:36.137Z,18.64
2018-09-20T03:02:05.286Z,18.58
2018-09-20T03:04:34.377Z,18.58
2018-09-20T03:07:03.482Z,18.64
2018-09-20T03:09:32.566Z,18.64
2018-09-20T03:12:01.677Z,18.68
2018-09-20T03:14:30.875Z,18.62
2018-09-20T03:17:00.926Z,18.74
2018-09-20T03:19:30.144Z,18.65
2018-09-20T03:22:00.230Z,18.71
2018-09-20T03:24:29.492Z,18.69
2018-09-20T03:26:58.704Z,18.62
2018-09-20T03:29:27.774Z,18.67
2018-09-20T03:31:56.781Z,18.61
2018-09-20T03:34:25.839Z,18.56
2018-09-20T03:37:05.450Z,18.46
2018-09-20T03:39:34.897Z,18.52
2018-09-20T03:42:04.963Z,18.51
2018-09-20T03:44:36.477Z,18.55
2018-09-20T03:47:05.768Z,18.64
2018-09-20T03:52:54.293Z,18.69
2018-09-20T03:55:24.562Z,18.59
2018-09-20T03:57:54.027Z,18.64
2018-09-20T04:00:24.603Z,18.60
2018-09-20T04:02:53.634Z,18.56
2018-09-20T04:05:27.096Z,18.55
2018-09-20T04:07:56.104Z,18.55
2018-09-20T04:10:26.005Z,18.64
2018-09-20T04:12:55.206Z,18.52
2018-09-20T04:15:24.338Z,18.47
2018-09-20T04:18:23.295Z,18.43
2018-09-20T04:21:03.645Z,18.36
2018-09-20T04:23:47.586Z,18.43
2018-09-20T04:26:17.690Z,18.45
2018-09-20T04:28:47.406Z,18.47
2018-09-20T04:32:25.914Z,18.48
2018-09-20T04:34:59.430Z,18.61
2018-09-20T04:37:29.293Z,18.59
2018-09-20T04:39:58.395Z,18.50
2018-09-20T04:42:28.288Z,18.50
2018-09-20T04:44:58.341Z,18.48
2018-09-20T04:47:28.540Z,18.46
2018-09-20T04:49:58.508Z,18.47
2018-09-20T04:52:27.564Z,18.46
2018-09-20T04:54:57.457Z,18.71
2018-09-20T04:57:27.545Z,18.60
2018-09-20T04:59:56.554Z,18.52
2018-09-20T05:02:27.123Z,18.52
2018-09-20T05:04:57.819Z,18.65
2018-09-20T05:07:27.477Z,18.53
2018-09-20T05:09:56.868Z,18.61
2018-09-20T05:12:26.057Z,18.53
2018-09-20T05:14:55.386Z,18.52
2018-09-20T05:17:24.594Z,18.54
2018-09-20T05:19:54.015Z,18.50
2018-09-20T05:22:23.367Z,18.50
2018-09-20T05:24:52.530Z,18.52
2018-09-20T05:27:22.355Z,18.60
2018-09-20T05:29:51.432Z,18.60
2018-09-20T05:32:20.668Z,18.73
2018-09-20T05:34:49.607Z,18.79
2018-09-20T05:37:18.682Z,18.83
2018-09-20T05:39:47.658Z,18.88
2018-09-20T05:42:16.705Z,18.83
2018-09-20T05:44:45.771Z,18.83
2018-09-20T05:47:14.867Z,18.73
2018-09-20T05:49:44.119Z,18.80
2018-09-20T05:52:14.097Z,18.95
2018-09-20T05:54:43.360Z,18.97
2018-09-20T05:57:13.257Z,18.93
2018-09-20T05:59:42.753Z,18.98
2018-09-20T06:02:11.833Z,18.99
2018-09-20T06:04:41.594Z,18.98
2018-09-20T06:07:10.930Z,19.07
2018-09-20T06:09:39.841Z,19.11
2018-09-20T06:12:09.034Z,19.12
2018-09-20T06:14:38.035Z,19.21
2018-09-20T06:17:07.140Z,19.23
2018-09-20T06:19:36.128Z,19.20
2018-09-20T06:22:05.716Z,19.22
2018-09-20T06:24:34.696Z,19.28
2018-09-20T06:29:38.640Z,19.40
2018-09-20T06:32:08.033Z,19.42
2018-09-20T06:34:37.018Z,19.42
2018-09-20T06:37:06.795Z,19.44
2018-09-20T06:39:35.818Z,19.54
2018-09-20T06:42:04.871Z,19.48
2018-09-20T06:44:34.031Z,19.50
2018-09-20T06:47:03.090Z,19.50
2018-09-20T06:50:01.799Z,19.58
2018-09-20T06:52:30.914Z,19.62
2018-09-20T06:54:59.883Z,19.75
2018-09-20T06:57:32.978Z,19.72
2018-09-20T07:00:02.087Z,19.78
2018-09-20T07:02:31.259Z,19.91
2018-09-20T07:05:00.230Z,19.86
2018-09-20T07:07:29.296Z,19.92
2018-09-20T07:09:58.297Z,20.01
2018-09-20T07:12:27.857Z,19.94
2018-09-20T07:14:56.859Z,20.07
2018-09-20T07:17:25.776Z,20.21
2018-09-20T07:19:55.055Z,20.09
2018-09-20T07:22:30.075Z,20.03
2018-09-20T07:24:59.175Z,20.22
2018-09-20T07:27:28.481Z,20.23
2018-09-20T07:29:57.617Z,20.13
2018-09-20T07:32:27.297Z,20.16
2018-09-20T07:34:56.290Z,20.16
2018-09-20T07:37:25.456Z,20.18
2018-09-20T07:39:54.561Z,20.25
2018-09-20T07:42:25.404Z,20.44
2018-09-20T07:44:54.760Z,20.53
2018-09-20T07:47:24.136Z,20.61
2018-09-20T07:49:53.404Z,20.60
2018-09-20T07:52:23.013Z,20.63
2018-09-20T07:54:52.539Z,20.76
2018-09-20T07:57:22.062Z,20.89
2018-09-20T07:59:55.087Z,21.02
2018-09-20T08:02:24.807Z,21.18
2018-09-20T08:04:54.003Z,21.36
2018-09-20T08:07:26.585Z,21.53
2018-09-20T08:09:58.058Z,21.49
2018-09-20T08:12:30.835Z,21.75
2018-09-20T08:15:00.155Z,21.73
2018-09-20T08:17:29.355Z,21.77
2018-09-20T08:19:58.674Z,21.89
2018-09-20T08:22:27.871Z,22.05
2018-09-20T08:24:57.098Z,22.17
2018-09-20T08:27:26.277Z,22.18
2018-09-20T08:29:55.574Z,22.10
2018-09-20T08:32:24.816Z,22.05
2018-09-20T08:34:54.106Z,22.24
2018-09-20T08:37:24.200Z,22.17
2018-09-20T08:39:53.371Z,22.14
2018-09-20T08:42:23.099Z,22.20
2018-09-20T08:44:52.283Z,22.24
2018-09-20T08:47:21.829Z,22.28
2018-09-20T08:49:50.919Z,22.39
2018-09-20T08:52:20.185Z,22.45
2018-09-20T08:54:49.375Z,22.45
2018-09-20T08:57:18.760Z,22.48
2018-09-20T08:59:47.824Z,22.50
2018-09-20T09:02:16.816Z,22.67
2018-09-20T09:04:45.763Z,22.66
2018-09-20T09:07:15.870Z,22.75
2018-09-20T09:09:44.872Z,22.93
2018-09-20T09:12:13.833Z,23.11
2018-09-20T09:14:42.843Z,23.24
2018-09-20T09:17:11.762Z,23.13
2018-09-20T09:19:40.852Z,23.22
2018-09-20T09:23:34.040Z,23.42
2018-09-20T09:26:05.000Z,23.67
2018-09-20T09:28:34.357Z,23.87
2018-09-20T09:31:04.175Z,23.89
2018-09-20T09:33:34.445Z,23.99
2018-09-20T09:36:04.456Z,24.08
2018-09-20T09:38:33.483Z,24.22
2018-09-20T09:41:03.280Z,24.32
2018-09-20T09:43:32.338Z,24.51
2018-09-20T09:46:01.290Z,24.70
2018-09-20T09:48:30.341Z,24.76
2018-09-20T09:50:59.438Z,24.88
2018-09-20T09:53:29.296Z,25.07
2018-09-20T09:55:58.249Z,25.07
2018-09-20T09:58:27.712Z,25.10
2018-09-20T10:00:56.703Z,25.03
2018-09-20T10:03:25.663Z,25.03
2018-09-20T10:05:55.668Z,24.94
2018-09-20T10:08:25.066Z,24.83
2018-09-20T10:10:54.201Z,24.79
2018-09-20T10:13:23.967Z,24.89
2018-09-20T10:15:54.052Z,24.92
2018-09-20T10:18:23.712Z,25.01
2018-09-20T10:20:52.882Z,24.88
2018-09-20T10:23:22.007Z,25.24
2018-09-20T10:25:51.283Z,25.62
2018-09-20T10:28:20.396Z,25.81
2018-09-20T10:30:49.591Z,25.94
2018-09-20T10:33:18.797Z,26.08
2018-09-20T10:35:47.752Z,26.19
2018-09-20T10:38:17.249Z,26.35
2018-09-20T10:40:46.273Z,26.33
2018-09-20T10:43:15.262Z,26.29
2018-09-20T10:45:44.225Z,26.44
2018-09-20T10:48:16.903Z,26.72
2018-09-20T10:50:45.858Z,27.28
2018-09-20T10:53:14.775Z,27.78
2018-09-20T10:55:43.800Z,27.97
2018-09-20T10:58:12.793Z,28.25
2018-09-20T11:00:41.751Z,28.41
2018-09-20T11:03:11.001Z,28.39
2018-09-20T11:05:39.739Z,27.98
2018-09-20T11:08:08.783Z,28.07
2018-09-20T11:10:37.984Z,28.34
2018-09-20T11:13:06.924Z,28.56
2018-09-20T11:15:35.917Z,28.77
2018-09-20T11:18:04.903Z,28.32
2018-09-20T11:20:33.845Z,27.51
2018-09-20T11:23:02.789Z,27.35
2018-09-20T11:25:31.764Z,27.42
2018-09-20T11:28:00.695Z,27.48
2018-09-20T11:30:30.441Z,27.65
2018-09-20T11:32:59.383Z,27.79
2018-09-20T11:35:29.802Z,28.03
2018-09-20T11:37:58.767Z,28.19
2018-09-20T11:40:30.665Z,28.00
2018-09-20T11:42:59.542Z,28.11
2018-09-20T11:45:29.674Z,28.01
2018-09-20T11:47:58.712Z,28.15
2018-09-20T11:50:30.239Z,28.17
2018-09-20T11:52:59.262Z,27.86
2018-09-20T11:55:29.611Z,27.05
2018-09-20T11:57:58.583Z,26.41
2018-09-20T12:00:30.202Z,26.23
2018-09-20T12:02:59.204Z,26.24
2018-09-20T12:05:29.697Z,26.13
2018-09-20T12:07:58.710Z,26.18
2018-09-20T12:10:30.362Z,26.22
2018-09-20T12:12:59.374Z,26.13
2018-09-20T12:15:32.668Z,25.94
2018-09-20T12:18:04.186Z,26.04
2018-09-20T12:20:36.309Z,25.48
2018-09-20T12:23:07.337Z,25.61
2018-09-20T12:25:36.832Z,25.58
2018-09-20T12:28:06.246Z,26.14
2018-09-20T12:30:35.324Z,26.36
2018-09-20T12:33:04.276Z,26.59
2018-09-20T12:35:33.347Z,26.89
2018-09-20T12:38:02.365Z,27.16
2018-09-20T12:40:44.127Z,27.40
2018-09-20T12:44:08.941Z,27.57
2018-09-20T12:46:41.296Z,27.41
2018-09-20T12:49:21.011Z,27.17
2018-09-20T12:55:00.886Z,27.32
2018-09-20T13:00:38.558Z,27.50
2018-09-20T13:03:07.659Z,27.60
2018-09-20T13:05:36.625Z,27.52
2018-09-20T13:08:05.813Z,27.57
2018-09-20T13:10:34.823Z,27.70
2018-09-20T13:13:04.623Z,27.65
2018-09-20T13:15:33.746Z,27.62
2018-09-20T13:18:02.668Z,27.04
2018-09-20T13:20:34.056Z,26.41
2018-09-20T13:23:02.988Z,26.23
2018-09-20T13:25:32.164Z,26.57
2018-09-20T13:28:01.967Z,26.99
2018-09-20T13:30:30.987Z,27.39
2018-09-20T13:32:59.981Z,27.48
2018-09-20T13:35:30.436Z,27.75
2018-09-20T13:37:59.481Z,27.78
2018-09-20T13:40:31.470Z,27.37
2018-09-20T13:43:01.514Z,27.25
2018-09-20T13:45:30.416Z,28.00
2018-09-20T13:47:59.379Z,28.80
2018-09-20T13:50:33.008Z,29.02
2018-09-20T13:53:01.997Z,29.36
2018-09-20T13:55:30.920Z,29.11
2018-09-20T13:57:59.979Z,28.88
2018-09-20T14:00:30.020Z,29.09
2018-09-20T14:02:58.944Z,29.05
2018-09-20T14:05:29.607Z,29.00
2018-09-20T14:07:58.502Z,28.61
2018-09-20T14:10:50.683Z,28.47
2018-09-20T14:13:42.460Z,28.30
2018-09-20T14:16:19.114Z,28.01
2018-09-20T14:19:03.804Z,27.83
2018-09-20T14:21:40.529Z,27.56
2018-09-20T14:24:09.603Z,27.64
2018-09-20T14:26:38.616Z,27.43
2018-09-20T14:29:07.603Z,27.40
2018-09-20T14:31:36.565Z,27.51
2018-09-20T14:34:05.528Z,27.45
2018-09-20T14:36:34.680Z,27.53
2018-09-20T14:39:04.632Z,27.60
2018-09-20T14:41:33.571Z,27.64
2018-09-20T14:44:02.599Z,27.63
2018-09-20T14:46:31.551Z,27.56
2018-09-20T14:49:00.488Z,27.60
2018-09-20T14:51:29.469Z,27.44
2018-09-20T14:53:58.410Z,27.37
2018-09-20T14:56:27.356Z,27.45
2018-09-20T14:58:56.335Z,27.61
2018-09-20T15:01:25.296Z,27.46
2018-09-20T15:03:54.195Z,27.25
2018-09-20T15:06:23.635Z,26.87
2018-09-20T15:08:52.731Z,26.80
2018-09-20T15:11:22.080Z,26.83
2018-09-20T15:13:51.520Z,26.77
2018-09-20T15:16:20.914Z,26.72
2018-09-20T15:18:49.986Z,26.55
2018-09-20T15:21:18.980Z,26.48
2018-09-20T15:23:47.996Z,26.40
2018-09-20T15:26:16.932Z,26.36
2018-09-20T15:28:45.914Z,26.34
2018-09-20T15:31:14.987Z,26.32
2018-09-20T15:33:43.880Z,26.19
2018-09-20T15:36:12.912Z,25.98
2018-09-20T15:38:41.804Z,25.81
2018-09-20T15:41:10.768Z,25.67
2018-09-20T15:43:39.730Z,25.68
2018-09-20T15:46:08.857Z,25.64
2018-09-20T15:48:38.696Z,25.59
2018-09-20T15:51:08.832Z,25.59
2018-09-20T15:58:11.278Z,25.54
2018-09-20T16:04:16.304Z,25.59
2018-09-20T16:06:45.378Z,25.61
2018-09-20T16:09:14.266Z,25.63
2018-09-20T16:11:43.303Z,25.64
2018-09-20T16:14:12.251Z,25.66
2018-09-20T16:16:41.190Z,25.65
2018-09-20T16:19:10.119Z,25.63
2018-09-20T16:21:39.087Z,25.60
2018-09-20T16:24:08.207Z,25.58
2018-09-20T16:26:37.938Z,25.52
2018-09-20T16:29:28.265Z,25.45
2018-09-20T16:32:10.847Z,25.39
2018-09-20T16:35:05.121Z,25.27
2018-09-20T16:39:48.306Z,25.23
2018-09-20T16:42:18.928Z,25.05
2018-09-20T16:44:47.957Z,24.97
2018-09-20T16:47:16.955Z,24.88
2018-09-20T16:49:45.940Z,24.78
2018-09-20T16:55:10.332Z,24.56
2018-09-20T16:57:39.516Z,24.47
2018-09-20T17:00:10.693Z,24.45
2018-09-20T17:02:40.418Z,24.30
2018-09-20T17:05:11.170Z,24.19
2018-09-20T17:07:40.783Z,24.17
2018-09-20T17:10:09.823Z,24.06
2018-09-20T17:12:38.791Z,23.93
2018-09-20T17:15:08.776Z,23.83
2018-09-20T17:17:37.836Z,23.79
2018-09-20T17:20:07.098Z,23.77
2018-09-20T17:22:36.304Z,23.66
2018-09-20T17:25:05.815Z,23.54
2018-09-20T17:27:35.552Z,23.42
2018-09-20T17:30:04.596Z,23.24
2018-09-20T17:32:33.484Z,23.14
2018-09-20T17:35:03.029Z,23.04
2018-09-20T17:37:32.892Z,22.96
2018-09-20T17:40:13.431Z,22.98
2018-09-20T17:42:43.411Z,22.93
2018-09-20T17:45:12.642Z,22.90
2018-09-20T17:47:41.663Z,22.84
2018-09-20T17:50:12.717Z,22.88
2018-09-20T17:52:43.313Z,22.88
2018-09-20T17:55:13.987Z,22.84
2018-09-20T17:57:43.615Z,22.87
2018-09-20T18:00:12.897Z,22.91
2018-09-20T18:02:42.169Z,22.98
2018-09-20T18:05:12.041Z,23.07
2018-09-20T18:07:41.541Z,23.05
2018-09-20T18:10:12.922Z,23.03
2018-09-20T18:12:44.683Z,22.96
2018-09-20T18:15:15.356Z,22.90
2018-09-20T18:17:47.185Z,22.90
2018-09-20T18:20:18.793Z,22.84
2018-09-20T18:22:50.990Z,22.80
2018-09-20T18:25:21.047Z,22.67
2018-09-20T18:27:57.787Z,22.56
2018-09-20T18:30:35.804Z,22.57
2018-09-20T18:33:06.448Z,22.57
2018-09-20T18:35:37.671Z,22.56
2018-09-20T18:38:08.764Z,22.58
2018-09-20T18:40:41.150Z,22.61
2018-09-20T18:43:11.316Z,22.59
2018-09-20T18:45:50.363Z,22.65
2018-09-20T18:48:21.334Z,22.61
2018-09-20T18:51:01.336Z,22.71
2018-09-20T18:53:43.447Z,22.65
2018-09-20T18:56:16.374Z,22.70
2018-09-20T18:58:56.165Z,22.72
2018-09-20T19:16:25.824Z,22.36
2018-09-20T19:19:06.103Z,22.33
2018-09-20T19:21:42.657Z,22.33
2018-09-20T19:24:26.063Z,22.33
2018-09-20T19:27:06.658Z,22.32
2018-09-20T19:29:39.359Z,22.11
2018-09-20T19:32:14.485Z,22.29
2018-09-20T19:34:49.552Z,22.28
2018-09-20T19:37:19.914Z,22.28
2018-09-20T19:39:54.783Z,22.26
2018-09-20T19:42:57.800Z,22.25
2018-09-20T19:45:40.429Z,22.24
2018-09-20T19:48:22.788Z,22.18
2018-09-20T19:51:06.545Z,22.17
2018-09-20T19:53:35.866Z,22.17
2018-09-20T19:56:12.230Z,22.14
2018-09-20T19:59:03.632Z,22.08
2018-09-20T20:01:35.035Z,22.13
2018-09-20T20:04:08.710Z,22.04
2018-09-20T20:06:47.128Z,22.03
2018-09-20T20:09:19.289Z,21.99
2018-09-20T20:11:50.921Z,21.84
2018-09-20T20:14:30.885Z,21.71
2018-09-20T20:17:01.354Z,21.69
2018-09-20T20:19:31.335Z,21.68
2018-09-20T20:22:10.193Z,21.62
2018-09-20T20:25:02.236Z,21.64
2018-09-20T20:27:41.031Z,21.64
2018-09-20T20:30:19.314Z,21.64
2018-09-20T20:32:50.174Z,21.71
2018-09-20T20:35:21.455Z,21.68
2018-09-20T20:37:53.695Z,21.90
2018-09-20T20:40:48.837Z,21.88
2018-09-20T20:43:59.905Z,21.62
2018-09-20T20:59:00.540Z,21.10
2018-09-20T21:01:31.105Z,21.05
2018-09-20T21:04:01.817Z,21.02
2018-09-20T21:06:31.221Z,21.15
2018-09-20T21:09:01.619Z,21.11
2018-09-20T21:11:32.065Z,21.15
2018-09-20T21:14:03.397Z,21.18
2018-09-20T21:16:33.555Z,21.16
2018-09-20T21:19:03.417Z,21.09
2018-09-20T21:21:34.107Z,21.04
2018-09-20T21:24:04.251Z,21.18
2018-09-20T21:26:36.012Z,21.18
2018-09-20T21:29:06.225Z,21.10
2018-09-20T21:31:40.823Z,21.13
2018-09-20T21:34:12.536Z,21.02
2018-09-20T21:36:43.989Z,20.99
2018-09-20T21:39:16.136Z,20.87
2018-09-20T21:41:46.125Z,20.79
2018-09-20T21:44:18.041Z,20.80
2018-09-20T21:46:49.144Z,20.62
2018-09-20T21:49:19.856Z,20.53
2018-09-20T21:51:52.983Z,20.57
2018-09-20T21:54:25.652Z,20.48
2018-09-20T21:56:57.317Z,20.33
2018-09-20T22:02:25.670Z,19.98
2018-09-20T22:05:11.089Z,19.85
2018-09-20T22:07:51.721Z,19.81
2018-09-20T22:10:32.828Z,19.85
2018-09-20T22:13:26.940Z,19.88
2018-09-20T22:15:56.047Z,19.86
2018-09-20T22:18:29.332Z,19.83
2018-09-20T22:21:00.181Z,19.78
2018-09-20T22:23:33.329Z,19.79
2018-09-20T22:26:03.520Z,19.81
2018-09-20T22:28:34.150Z,20.22
2018-09-20T22:31:04.096Z,20.26
2018-09-20T22:33:33.850Z,20.26
2018-09-20T22:36:05.028Z,20.18
2018-09-20T22:38:35.547Z,20.16
2018-09-20T22:41:05.931Z,20.06
2018-09-20T22:43:36.353Z,20.09
2018-09-20T22:46:06.479Z,20.16
2018-09-20T22:48:37.876Z,20.16
2018-09-20T22:51:08.103Z,20.05
2018-09-20T22:53:38.134Z,19.95
2018-09-20T22:56:08.255Z,19.83
2018-09-20T22:58:38.220Z,19.70
2018-09-20T23:01:09.766Z,19.69
2018-09-20T23:03:40.324Z,19.63
2018-09-20T23:06:11.544Z,19.59
2018-09-20T23:08:43.197Z,19.50
2018-09-20T23:11:17.601Z,19.42
2018-09-20T23:13:49.334Z,19.32
2018-09-20T23:16:20.640Z,19.32
2018-09-20T23:18:51.101Z,19.37
2018-09-20T23:21:21.049Z,19.38
2018-09-20T23:23:51.216Z,19.35
2018-09-20T23:26:20.709Z,19.31
2018-09-20T23:28:50.254Z,19.30
2018-09-20T23:31:19.942Z,19.38
2018-09-20T23:33:50.384Z,19.51
2018-09-20T23:36:25.932Z,19.67
2018-09-20T23:38:55.740Z,19.67
2018-09-20T23:41:25.428Z,19.60
2018-09-20T23:43:54.680Z,19.48
2018-09-20T23:46:28.624Z,19.37
2018-09-20T23:48:58.675Z,19.27
2018-09-20T23:51:29.949Z,19.20
2018-09-20T23:53:59.133Z,19.20
2018-09-20T23:56:28.859Z,19.33
2018-09-20T23:58:58.737Z,19.44
